Time;durP1;ratioP1;P1;durP2;ratioP2;P2;SDS_P1;SDS_P2;PMS_P1;PMS_P2;Temp;Humidity;BMP_temperature;BMP_pressure;BME280_temperature;BME280_humidity;BME280_pressure;Samples;Min_cycle;Max_cycle;Signal;HPM_P1;HPM_P2
2021/10/26 02:39:23;;;;;;;9.63;8.53;;;10.50;99.90;;;;;;6109842;23;20424;-87
2021/10/26 02:41:51;;;;;;;10.97;9.87;;;10.50;99.90;;;;;;6109609;23;20449;-87
2021/10/26 02:44:18;;;;;;;11.05;9.90;;;10.40;99.90;;;;;;6111820;23;20477;-87
2021/10/26 02:46:45;;;;;;;11.10;10.10;;;10.40;99.90;;;;;;6110756;23;20184;-87
2021/10/26 02:49:14;;;;;;;11.60;10.13;;;10.40;99.90;;;;;;6111829;23;20414;-88
2021/10/26 02:51:41;;;;;;;11.30;10.20;;;10.40;99.90;;;;;;6111868;23;20418;-87
2021/10/26 02:54:08;;;;;;;10.33;9.17;;;10.40;99.90;;;;;;6111048;23;20471;-88
2021/10/26 02:56:34;;;;;;;10.73;9.73;;;10.40;99.90;;;;;;6111323;23;20778;-87
2021/10/26 02:59:02;;;;;;;11.40;10.40;;;10.40;99.90;;;;;;6111402;23;20214;-87
2021/10/26 03:01:29;;;;;;;11.57;9.27;;;10.40;99.90;;;;;;6113400;23;20405;-86
2021/10/26 03:03:56;;;;;;;10.47;9.43;;;10.40;99.90;;;;;;6113183;23;20466;-87
2021/10/26 03:06:23;;;;;;;13.17;9.10;;;10.40;99.90;;;;;;6111476;23;20421;-87
2021/10/26 03:08:50;;;;;;;13.10;10.10;;;10.40;99.90;;;;;;6113733;23;20441;-87
2021/10/26 03:11:17;;;;;;;12.83;10.93;;;10.40;99.90;;;;;;6113329;23;20415;-87
2021/10/26 03:13:43;;;;;;;11.15;10.13;;;10.40;99.90;;;;;;6114346;23;20498;-86
2021/10/26 03:16:12;;;;;;;12.40;10.27;;;10.40;99.90;;;;;;6113694;23;20207;-88
2021/10/26 03:18:38;;;;;;;12.47;10.50;;;10.50;99.90;;;;;;6113463;23;20934;-88
2021/10/26 03:21:05;;;;;;;12.07;10.98;;;10.50;99.90;;;;;;6113763;23;20901;-87
2021/10/26 03:23:32;;;;;;;11.20;10.30;;;10.40;99.90;;;;;;6114301;23;20246;-86
2021/10/26 03:25:59;;;;;;;13.03;11.10;;;10.30;99.90;;;;;;6113956;23;20439;-87
2021/10/26 03:28:27;;;;;;;12.13;11.03;;;10.30;99.90;;;;;;6114126;23;20822;-87
2021/10/26 03:30:54;;;;;;;12.25;11.05;;;10.20;99.90;;;;;;6114278;23;20419;-88
2021/10/26 03:33:22;;;;;;;13.10;11.88;;;10.20;99.90;;;;;;6113636;23;20267;-87
2021/10/26 03:35:50;;;;;;;12.18;10.90;;;10.20;99.90;;;;;;6114351;23;20185;-88
2021/10/26 03:38:17;;;;;;;12.52;11.07;;;10.20;99.90;;;;;;6113229;23;20214;-87
2021/10/26 03:40:43;;;;;;;12.50;11.27;;;10.20;99.90;;;;;;6113722;23;20205;-87
2021/10/26 03:43:10;;;;;;;12.77;11.57;;;10.20;99.90;;;;;;6113526;23;20189;-87
2021/10/26 03:45:37;;;;;;;13.10;11.70;;;10.10;99.90;;;;;;6113970;23;20246;-87
2021/10/26 03:48:05;;;;;;;14.07;11.25;;;10.10;99.90;;;;;;6113757;23;20280;-87
2021/10/26 03:50:33;;;;;;;13.77;11.43;;;10.10;99.90;;;;;;6119338;23;20190;-84
2021/10/26 03:53:00;;;;;;;20.73;11.85;;;10.10;99.90;;;;;;6123267;23;20170;-84
2021/10/26 03:55:27;;;;;;;14.83;11.67;;;10.10;99.90;;;;;;6122839;23;20216;-86
2021/10/26 03:57:53;;;;;;;11.73;10.30;;;10.00;99.90;;;;;;6121280;23;20525;-85
2021/10/26 04:00:20;;;;;;;10.93;9.82;;;10.00;99.90;;;;;;6121979;23;20186;-86
2021/10/26 04:02:49;;;;;;;13.10;10.90;;;10.00;99.90;;;;;;6122190;23;20193;-87
2021/10/26 04:05:20;;;;;;;13.57;12.13;;;9.90;99.90;;;;;;6121853;23;20430;-87
2021/10/26 04:07:54;;;;;;;12.70;11.45;;;9.90;99.90;;;;;;6121967;23;20426;-86
2021/10/26 04:10:31;;;;;;;14.30;11.55;;;9.90;99.90;;;;;;6122343;23;20186;-85
2021/10/26 04:12:59;;;;;;;11.55;10.48;;;9.90;99.90;;;;;;6120258;23;20221;-87
2021/10/26 04:15:26;;;;;;;11.68;10.52;;;9.90;99.90;;;;;;6119030;23;20200;-85
2021/10/26 04:17:52;;;;;;;11.82;10.70;;;9.80;99.90;;;;;;6122141;23;20204;-85
2021/10/26 04:20:19;;;;;;;12.13;10.90;;;9.80;99.90;;;;;;6121516;23;20225;-85
2021/10/26 04:22:46;;;;;;;10.60;9.50;;;9.80;99.90;;;;;;6121818;23;20202;-85
2021/10/26 04:25:14;;;;;;;11.10;10.00;;;9.70;99.90;;;;;;6121153;23;20196;-85
2021/10/26 04:27:41;;;;;;;12.23;11.15;;;9.70;99.90;;;;;;6121351;23;20200;-84
2021/10/26 04:30:09;;;;;;;12.57;11.40;;;9.70;99.90;;;;;;6121705;23;20196;-87
2021/10/26 04:32:37;;;;;;;12.65;11.45;;;9.70;99.90;;;;;;6122012;23;20189;-87
2021/10/26 04:35:04;;;;;;;12.60;11.23;;;9.70;99.90;;;;;;6121147;23;20245;-88
2021/10/26 04:37:31;;;;;;;11.60;10.40;;;9.60;99.90;;;;;;6121359;23;20250;-86
2021/10/26 04:39:57;;;;;;;10.80;9.73;;;9.60;99.90;;;;;;6121679;23;20216;-86
2021/10/26 04:42:26;;;;;;;11.20;10.02;;;9.70;99.90;;;;;;6121426;23;20414;-87
2021/10/26 04:44:52;;;;;;;13.43;11.35;;;9.60;99.90;;;;;;6121248;23;20244;-86
2021/10/26 04:47:22;;;;;;;12.70;10.35;;;9.70;99.90;;;;;;6120539;23;20280;-86
2021/10/26 04:49:49;;;;;;;11.35;10.18;;;9.60;99.90;;;;;;6120592;23;20182;-86
2021/10/26 04:52:16;;;;;;;12.20;10.77;;;9.70;99.90;;;;;;6121972;23;20205;-84
2021/10/26 04:54:43;;;;;;;13.93;11.32;;;9.70;99.90;;;;;;6121771;23;20202;-86
2021/10/26 04:57:10;;;;;;;12.65;11.43;;;9.70;99.90;;;;;;6117358;23;20215;-87
2021/10/26 04:59:38;;;;;;;15.55;13.02;;;9.70;99.90;;;;;;6112814;23;20257;-86
2021/10/26 05:02:05;;;;;;;18.98;13.63;;;9.50;99.90;;;;;;6112556;23;20186;-87
2021/10/26 05:04:32;;;;;;;13.98;11.88;;;9.30;99.90;;;;;;6112566;23;20715;-86
2021/10/26 05:06:59;;;;;;;11.88;10.75;;;9.30;99.90;;;;;;6112435;23;20257;-87
2021/10/26 05:09:26;;;;;;;12.13;10.93;;;9.40;99.90;;;;;;6113136;23;20216;-86
2021/10/26 05:11:53;;;;;;;13.57;12.13;;;9.40;99.90;;;;;;6112553;23;20214;-87
2021/10/26 05:14:19;;;;;;;12.02;10.93;;;9.50;99.90;;;;;;6112466;23;20184;-87
2021/10/26 05:16:48;;;;;;;12.95;11.65;;;9.50;99.90;;;;;;6112797;23;20229;-86
2021/10/26 05:19:16;;;;;;;13.13;11.95;;;9.50;99.90;;;;;;6112606;23;20215;-86
2021/10/26 05:21:43;;;;;;;12.27;10.35;;;9.40;99.90;;;;;;6111853;23;20521;-86
2021/10/26 05:24:10;;;;;;;12.93;11.60;;;9.50;99.90;;;;;;6111849;23;20218;-88
2021/10/26 05:26:37;;;;;;;13.45;11.70;;;9.50;99.90;;;;;;6111204;23;20595;-88
2021/10/26 05:29:04;;;;;;;16.13;13.45;;;9.40;99.90;;;;;;6110661;23;20184;-87
2021/10/26 05:31:31;;;;;;;16.20;13.30;;;9.40;99.90;;;;;;6111361;23;20243;-86
2021/10/26 05:34:00;;;;;;;13.73;12.20;;;9.40;99.90;;;;;;6112201;23;20240;-86
2021/10/26 05:36:26;;;;;;;17.67;11.93;;;9.40;99.90;;;;;;6111052;23;20260;-86
2021/10/26 05:38:53;;;;;;;12.93;11.60;;;9.30;99.90;;;;;;6112079;23;20279;-86
2021/10/26 05:41:20;;;;;;;15.80;14.13;;;9.30;99.90;;;;;;6111666;23;20227;-87
2021/10/26 05:43:47;;;;;;;11.93;10.73;;;9.20;99.90;;;;;;6111473;23;20268;-86
2021/10/26 05:46:14;;;;;;;13.50;12.20;;;9.30;99.90;;;;;;6111569;23;20197;-88
2021/10/26 05:48:40;;;;;;;17.50;14.05;;;9.20;99.90;;;;;;6111350;23;20232;-86
2021/10/26 05:51:09;;;;;;;12.90;11.60;;;9.20;99.90;;;;;;6112330;23;20232;-85
2021/10/26 05:53:36;;;;;;;15.73;12.70;;;9.20;99.90;;;;;;6111445;23;20183;-86
2021/10/26 05:56:04;;;;;;;16.37;14.60;;;9.20;99.90;;;;;;6110729;23;20216;-86
2021/10/26 05:58:30;;;;;;;15.68;12.45;;;9.20;99.90;;;;;;6111069;23;20489;-86
2021/10/26 06:00:57;;;;;;;15.02;13.38;;;9.20;99.90;;;;;;6111278;23;20208;-87
2021/10/26 06:03:24;;;;;;;13.88;12.48;;;9.20;99.90;;;;;;6112037;23;20257;-87
2021/10/26 06:05:51;;;;;;;14.77;13.38;;;9.20;99.90;;;;;;6111570;23;20253;-87
2021/10/26 06:08:19;;;;;;;13.50;12.20;;;9.20;99.90;;;;;;6111423;23;20198;-86
2021/10/26 06:10:51;;;;;;;14.48;11.93;;;9.20;99.90;;;;;;6112836;23;20253;-86
2021/10/26 06:13:23;;;;;;;14.25;12.73;;;9.20;99.90;;;;;;6112609;23;20177;-88
2021/10/26 06:15:51;;;;;;;14.50;13.10;;;9.20;99.90;;;;;;6112717;23;20194;-87
2021/10/26 06:18:18;;;;;;;14.77;12.50;;;9.20;99.90;;;;;;6112722;23;20200;-88
2021/10/26 06:20:45;;;;;;;18.23;13.10;;;9.30;99.90;;;;;;6112824;23;20237;-86
2021/10/26 06:23:12;;;;;;;16.75;15.05;;;9.40;99.90;;;;;;6112990;23;20240;-86
2021/10/26 06:25:40;;;;;;;18.35;14.30;;;9.30;99.90;;;;;;6115941;23;20223;-88
2021/10/26 06:28:07;;;;;;;16.95;14.88;;;9.40;99.90;;;;;;6117836;23;20280;-87
2021/10/26 06:30:34;;;;;;;17.33;14.20;;;9.40;99.90;;;;;;6116730;23;20299;-88
2021/10/26 06:33:01;;;;;;;17.00;14.48;;;9.50;99.90;;;;;;6116102;23;20264;-88
2021/10/26 06:35:28;;;;;;;16.20;14.27;;;9.50;99.90;;;;;;6114788;23;20242;-87
2021/10/26 06:37:55;;;;;;;15.60;12.57;;;9.60;99.90;;;;;;6111970;23;20202;-87
2021/10/26 06:40:24;;;;;;;16.30;14.80;;;9.60;99.90;;;;;;6110641;23;20881;-86
2021/10/26 06:42:53;;;;;;;15.07;13.57;;;9.70;99.90;;;;;;6110259;23;20250;-85
2021/10/26 06:45:20;;;;;;;13.65;12.25;;;9.80;99.90;;;;;;6110080;23;20180;-87
2021/10/26 06:47:47;;;;;;;15.05;13.55;;;9.80;99.90;;;;;;6110415;23;20193;-87
2021/10/26 06:50:13;;;;;;;14.85;11.93;;;9.70;99.90;;;;;;6110467;23;20556;-88
2021/10/26 06:52:40;;;;;;;18.97;13.37;;;9.80;99.90;;;;;;6110391;23;20270;-86
2021/10/26 06:55:09;;;;;;;17.00;12.88;;;9.90;99.90;;;;;;6110707;23;20410;-88
2021/10/26 06:57:35;;;;;;;18.87;13.47;;;9.90;99.90;;;;;;6109169;23;20263;-88
2021/10/26 07:00:06;;;;;;;16.27;14.57;;;9.80;99.90;;;;;;6110322;23;20421;-87
2021/10/26 07:02:32;;;;;;;17.63;15.93;;;9.70;99.90;;;;;;6109474;23;20177;-87
2021/10/26 07:05:04;;;;;;;21.10;15.03;;;9.70;99.90;;;;;;6108371;23;20178;-87
2021/10/26 07:07:31;;;;;;;19.17;15.75;;;9.70;99.90;;;;;;6109599;23;20813;-86
2021/10/26 07:10:03;;;;;;;16.13;13.73;;;9.70;99.90;;;;;;6110919;23;20209;-86
2021/10/26 07:12:30;;;;;;;20.30;14.88;;;9.70;99.90;;;;;;6110643;23;20174;-89
2021/10/26 07:14:57;;;;;;;20.38;16.42;;;9.80;99.90;;;;;;6104722;23;20193;-86
2021/10/26 07:17:25;;;;;;;19.52;14.38;;;10.00;99.90;;;;;;6101235;23;20290;-86
2021/10/26 07:19:52;;;;;;;16.58;14.20;;;10.10;99.90;;;;;;6102517;23;20201;-88
2021/10/26 07:22:19;;;;;;;17.63;14.83;;;10.20;99.90;;;;;;6102036;23;20514;-87
2021/10/26 07:24:55;;;;;;;15.02;13.60;;;10.40;99.90;;;;;;6101804;23;20409;-86
2021/10/26 07:27:21;;;;;;;14.98;13.00;;;10.50;99.90;;;;;;6102057;23;20201;-85
2021/10/26 07:29:48;;;;;;;14.35;12.98;;;10.50;99.90;;;;;;6101414;23;20186;-87
2021/10/26 07:32:15;;;;;;;14.97;13.47;;;10.70;99.90;;;;;;6097914;23;20273;-84
2021/10/26 07:34:44;;;;;;;14.67;13.27;;;10.80;99.90;;;;;;6100847;23;20434;-86
2021/10/26 07:37:11;;;;;;;14.00;11.93;;;10.80;99.90;;;;;;6099298;23;20439;-85
2021/10/26 07:39:45;;;;;;;13.17;11.87;;;10.90;99.90;;;;;;6100434;23;20420;-85
2021/10/26 07:42:12;;;;;;;14.17;12.73;;;11.00;99.90;;;;;;6100191;23;20408;-86
2021/10/26 07:44:39;;;;;;;14.70;12.50;;;11.00;99.90;;;;;;6097516;23;20427;-84
2021/10/26 07:47:06;;;;;;;14.03;12.10;;;11.10;99.90;;;;;;6097051;23;20767;-85
2021/10/26 07:49:33;;;;;;;14.97;13.43;;;11.20;99.90;;;;;;6100509;23;20768;-84
2021/10/26 07:52:03;;;;;;;14.13;12.63;;;11.30;99.90;;;;;;6101162;23;20756;-84
2021/10/26 07:54:29;;;;;;;14.60;13.10;;;11.50;99.90;;;;;;6099899;23;20473;-85
2021/10/26 07:56:57;;;;;;;14.70;13.20;;;11.70;99.90;;;;;;6104717;23;20447;-84
2021/10/26 08:00:06;;;;;;;14.07;12.70;;;11.90;99.90;;;;;;6121061;23;20441;-83
2021/10/26 08:02:33;;;;;;;15.80;11.90;;;12.10;99.90;;;;;;6124269;23;20471;-84
2021/10/26 08:05:01;;;;;;;11.00;10.00;;;12.30;99.90;;;;;;6124856;23;20487;-85
2021/10/26 08:07:29;;;;;;;13.13;11.27;;;12.40;99.90;;;;;;6124053;23;20447;-85
2021/10/26 08:09:57;;;;;;;14.10;12.50;;;12.60;99.90;;;;;;6110064;23;20397;-86
2021/10/26 08:12:26;;;;;;;12.57;11.57;;;12.70;99.90;;;;;;6105473;23;20430;-86
2021/10/26 08:14:55;;;;;;;13.27;11.57;;;12.80;99.90;;;;;;6104128;23;20401;-86
2021/10/26 08:17:21;;;;;;;13.13;11.87;;;12.90;99.90;;;;;;6104054;23;20458;-86
2021/10/26 08:19:49;;;;;;;11.93;10.73;;;12.80;99.90;;;;;;6105242;23;20419;-86
2021/10/26 08:22:18;;;;;;;13.27;11.77;;;13.00;99.90;;;;;;6105027;23;20411;-85
2021/10/26 08:24:48;;;;;;;14.93;11.90;;;13.10;99.90;;;;;;6105015;23;20495;-86
2021/10/26 08:27:17;;;;;;;12.53;11.33;;;13.20;99.90;;;;;;6104255;23;21023;-86
2021/10/26 08:29:51;;;;;;;11.70;10.50;;;13.20;99.90;;;;;;6105154;23;20492;-86
2021/10/26 08:35:18;;;;;;;12.00;10.90;;;13.30;99.90;;;;;;6105929;23;20855;-86
2021/10/26 08:37:47;;;;;;;12.57;10.87;;;13.50;99.90;;;;;;6106661;23;20808;-86
2021/10/26 08:40:17;;;;;;;13.17;11.87;;;13.60;99.90;;;;;;6105667;23;20416;-86
2021/10/26 08:42:46;;;;;;;15.10;12.20;;;13.80;99.90;;;;;;6106546;23;20420;-86
2021/10/26 08:45:13;;;;;;;12.90;10.10;;;13.90;99.90;;;;;;6110074;23;20401;-84
2021/10/26 08:47:41;;;;;;;12.40;11.20;;;14.00;99.90;;;;;;6118067;23;20425;-84
2021/10/26 08:50:09;;;;;;;11.33;9.97;;;14.20;99.90;;;;;;6117710;23;20420;-84
2021/10/26 08:52:35;;;;;;;10.67;9.00;;;14.30;99.90;;;;;;6117886;23;20415;-84
2021/10/26 08:55:04;;;;;;;9.20;8.30;;;13.90;99.90;;;;;;6117889;23;20436;-84
2021/10/26 08:57:33;;;;;;;9.83;8.80;;;13.90;99.90;;;;;;6117302;23;20492;-85
2021/10/26 09:00:05;;;;;;;9.80;9.00;;;13.80;99.90;;;;;;6118341;23;20412;-84
2021/10/26 09:02:34;;;;;;;7.37;6.67;;;14.00;99.90;;;;;;6117053;23;20873;-85
2021/10/26 09:05:11;;;;;;;7.70;6.60;;;14.00;99.90;;;;;;6116970;23;20412;-84
2021/10/26 09:07:38;;;;;;;6.37;5.77;;;14.00;99.90;;;;;;6116733;23;21027;-85
2021/10/26 09:10:10;;;;;;;7.03;6.33;;;14.10;99.90;;;;;;6117491;23;20440;-84
2021/10/26 09:18:08;;;;;;;6.13;5.63;;;13.80;99.90;;;;;;6117504;23;20488;-84
2021/10/26 09:20:35;;;;;;;6.97;6.40;;;14.00;99.90;;;;;;6116699;23;20420;-84
2021/10/26 09:23:03;;;;;;;10.30;6.10;;;14.00;99.90;;;;;;6116825;23;20988;-85
2021/10/26 09:25:36;;;;;;;8.33;7.53;;;14.00;99.90;;;;;;6117285;23;20418;-85
2021/10/26 09:28:15;;;;;;;8.10;5.67;;;14.40;99.90;;;;;;6118183;23;20406;-84
2021/10/26 09:30:43;;;;;;;5.47;5.07;;;14.50;99.90;;;;;;6116714;23;20477;-84
2021/10/26 09:33:10;;;;;;;4.20;3.87;;;14.80;99.90;;;;;;6116773;23;20509;-84
2021/10/26 09:35:37;;;;;;;7.70;4.20;;;14.80;99.90;;;;;;6116457;23;20419;-84
2021/10/26 09:38:04;;;;;;;6.63;4.93;;;14.80;99.90;;;;;;6116022;23;20473;-84
2021/10/26 09:40:42;;;;;;;4.67;4.27;;;14.80;99.90;;;;;;6117501;23;20410;-84
2021/10/26 09:43:09;;;;;;;7.07;5.50;;;14.90;99.90;;;;;;6117607;23;20395;-83
2021/10/26 09:45:41;;;;;;;4.50;4.10;;;14.90;99.90;;;;;;6117082;23;20409;-85
2021/10/26 09:48:12;;;;;;;5.50;4.97;;;15.00;99.90;;;;;;6116447;23;20432;-85
2021/10/26 09:50:39;;;;;;;5.70;4.57;;;15.10;99.90;;;;;;6116518;23;20390;-85
2021/10/26 09:53:07;;;;;;;5.00;4.50;;;15.10;99.90;;;;;;6116267;23;20475;-85
2021/10/26 09:55:39;;;;;;;5.67;3.90;;;15.20;99.90;;;;;;6116309;23;20409;-85
2021/10/26 09:58:10;;;;;;;5.80;4.10;;;15.40;99.90;;;;;;6116389;23;20465;-85
2021/10/26 10:00:39;;;;;;;4.37;4.07;;;15.50;99.90;;;;;;6116926;23;20397;-85
2021/10/26 10:03:09;;;;;;;5.17;4.77;;;15.30;99.90;;;;;;6116608;23;20417;-85
2021/10/26 10:05:39;;;;;;;3.10;2.80;;;15.10;99.90;;;;;;6116235;23;20397;-84
2021/10/26 10:08:19;;;;;;;6.63;2.97;;;15.00;99.90;;;;;;6115789;23;20429;-84
2021/10/26 10:10:45;;;;;;;6.20;3.70;;;14.70;99.90;;;;;;6115805;23;20397;-84
2021/10/26 10:13:13;;;;;;;2.93;2.73;;;14.40;99.90;;;;;;6115853;23;20777;-84
2021/10/26 10:15:42;;;;;;;3.17;2.40;;;14.50;99.90;;;;;;6115598;23;20410;-85
2021/10/26 10:18:13;;;;;;;2.90;2.60;;;14.60;99.90;;;;;;6116261;23;20838;-84
2021/10/26 10:20:39;;;;;;;3.90;3.10;;;14.40;99.90;;;;;;6116749;23;20464;-84
2021/10/26 10:23:07;;;;;;;3.67;3.37;;;14.60;99.90;;;;;;6116276;23;20395;-84
2021/10/26 10:25:34;;;;;;;3.97;2.30;;;14.70;99.90;;;;;;6116081;23;20491;-84
2021/10/26 10:28:03;;;;;;;2.70;2.50;;;14.70;99.90;;;;;;6116138;23;20430;-83
2021/10/26 10:30:31;;;;;;;3.00;2.90;;;14.80;99.90;;;;;;6116058;23;20408;-85
2021/10/26 10:32:58;;;;;;;3.20;2.90;;;15.10;99.90;;;;;;6116093;23;20480;-84
2021/10/26 10:35:28;;;;;;;3.13;2.93;;;15.40;99.90;;;;;;6115130;23;20487;-85
2021/10/26 10:37:56;;;;;;;4.20;3.80;;;15.80;99.90;;;;;;6116577;23;20438;-84
2021/10/26 10:40:25;;;;;;;4.60;3.47;;;16.20;99.90;;;;;;6115606;23;20424;-84
2021/10/26 10:42:54;;;;;;;2.47;2.37;;;16.50;99.90;;;;;;6114379;23;20414;-84
2021/10/26 10:45:25;;;;;;;2.67;2.47;;;16.70;99.90;;;;;;6114546;23;20417;-84
2021/10/26 10:47:54;;;;;;;2.30;2.20;;;16.80;99.90;;;;;;6115201;23;20510;-84
2021/10/26 10:50:43;;;;;;;2.37;2.17;;;16.60;99.90;;;;;;6114568;23;20510;-84
2021/10/26 10:53:14;;;;;;;3.10;2.90;;;16.40;99.90;;;;;;6110750;23;20420;-84
2021/10/26 10:55:44;;;;;;;3.03;2.83;;;16.30;99.90;;;;;;6114844;23;20394;-84
2021/10/26 10:58:31;;;;;;;3.60;2.77;;;16.30;99.90;;;;;;6114935;23;20816;-85
2021/10/26 11:01:32;;;;;;;4.47;3.30;;;16.30;99.90;;;;;;6114026;23;20397;-84
2021/10/26 11:04:00;;;;;;;3.17;2.87;;;16.30;99.90;;;;;;6114622;23;20405;-85
2021/10/26 11:06:53;;;;;;;3.10;2.90;;;16.10;99.90;;;;;;6114157;23;20417;-84
2021/10/26 11:09:40;;;;;;;2.47;2.27;;;15.80;99.90;;;;;;6106093;23;20414;-85
2021/10/26 11:12:13;;;;;;;2.60;2.40;;;15.90;99.90;;;;;;6114138;23;20480;-84
2021/10/26 11:14:44;;;;;;;3.63;2.73;;;16.20;99.90;;;;;;6113250;23;20410;-85
2021/10/26 11:18:00;;;;;;;2.30;2.10;;;16.20;99.90;;;;;;6112947;23;20429;-85
2021/10/26 11:20:46;;;;;;;3.80;3.37;;;16.20;99.90;;;;;;6114909;23;20409;-85
2021/10/26 11:23:32;;;;;;;3.00;2.00;;;16.30;99.90;;;;;;6116271;23;20409;-84
2021/10/26 11:26:01;;;;;;;1.93;1.83;;;16.20;99.90;;;;;;6116142;23;20398;-85
2021/10/26 11:28:46;;;;;;;3.00;2.70;;;16.30;99.90;;;;;;6116513;23;20513;-85
2021/10/26 11:31:15;;;;;;;2.93;2.33;;;16.40;99.90;;;;;;6116730;23;20410;-83
2021/10/26 11:33:52;;;;;;;3.17;2.33;;;16.20;99.90;;;;;;6116964;23;20408;-84
2021/10/26 11:36:19;;;;;;;2.10;2.00;;;16.00;99.90;;;;;;6115724;23;20397;-84
2021/10/26 11:38:51;;;;;;;4.50;3.97;;;15.90;99.90;;;;;;6116413;23;20453;-84
2021/10/26 11:41:22;;;;;;;7.47;2.30;;;16.00;99.90;;;;;;6116387;23;20469;-85
2021/10/26 11:43:51;;;;;;;2.93;2.63;;;16.40;99.90;;;;;;6116895;23;20402;-85
2021/10/26 11:46:40;;;;;;;5.20;2.20;;;16.60;99.90;;;;;;6116087;23;20417;-84
2021/10/26 11:49:09;;;;;;;3.23;2.10;;;16.20;99.90;;;;;;6115297;23;20418;-84
2021/10/26 11:51:38;;;;;;;1.70;1.60;;;16.20;99.90;;;;;;6115907;23;20413;-85
2021/10/26 11:54:12;;;;;;;1.77;1.67;;;16.10;99.90;;;;;;6115030;23;20497;-85
2021/10/26 11:56:41;;;;;;;1.87;1.77;;;16.00;99.90;;;;;;6115637;23;20402;-85
2021/10/26 12:02:34;;;;;;;2.97;2.57;;;15.80;99.90;;;;;;6114068;23;20398;-84
2021/10/26 12:05:01;;;;;;;2.53;2.00;;;15.30;99.90;;;;;;6116901;23;20386;-82
2021/10/26 12:07:30;;;;;;;2.20;2.00;;;15.20;99.90;;;;;;6124952;23;20993;-83
2021/10/26 12:09:59;;;;;;;2.37;2.17;;;15.10;99.90;;;;;;6123447;23;20405;-84
2021/10/26 12:12:29;;;;;;;2.27;2.10;;;15.00;99.90;;;;;;6116050;23;20446;-84
2021/10/26 12:14:57;;;;;;;3.40;2.30;;;15.00;99.90;;;;;;6116629;23;20745;-84
2021/10/26 12:17:26;;;;;;;1.90;1.80;;;14.90;99.90;;;;;;6115002;23;20436;-84
2021/10/26 12:20:00;;;;;;;3.90;2.10;;;14.90;99.90;;;;;;6116874;23;20445;-84
2021/10/26 12:22:31;;;;;;;2.63;2.37;;;14.80;99.90;;;;;;6115937;23;20888;-85
2021/10/26 12:25:09;;;;;;;5.17;2.43;;;14.90;99.90;;;;;;6116338;23;20470;-85
2021/10/26 12:27:37;;;;;;;2.43;2.20;;;14.70;99.90;;;;;;6116042;23;20439;-85
2021/10/26 12:30:14;;;;;;;2.30;2.10;;;14.60;99.90;;;;;;6116443;23;20413;-84
2021/10/26 12:32:42;;;;;;;2.43;1.87;;;14.60;99.90;;;;;;6112505;23;20386;-86
2021/10/26 12:35:13;;;;;;;3.07;2.27;;;14.60;99.90;;;;;;6106364;23;20439;-85
2021/10/26 12:37:40;;;;;;;2.20;1.80;;;14.60;99.90;;;;;;6108730;23;20441;-85
2021/10/26 12:40:17;;;;;;;2.53;2.20;;;14.70;99.90;;;;;;6107269;23;20453;-85
2021/10/26 12:42:45;;;;;;;3.70;3.30;;;14.70;99.90;;;;;;6111097;23;20412;-86
2021/10/26 12:45:15;;;;;;;2.20;2.10;;;14.40;99.90;;;;;;6111233;23;20408;-85
2021/10/26 12:47:59;;;;;;;3.87;3.13;;;14.30;99.90;;;;;;6112070;23;21031;-85
2021/10/26 12:50:30;;;;;;;2.83;2.63;;;14.20;99.90;;;;;;6110310;23;20389;-85
2021/10/26 12:53:17;;;;;;;3.47;3.17;;;14.00;99.90;;;;;;6111208;23;20791;-86
2021/10/26 12:55:47;;;;;;;3.50;3.30;;;13.90;99.90;;;;;;6109932;23;20496;-84
2021/10/26 12:58:38;;;;;;;3.27;3.07;;;13.70;99.90;;;;;;6109417;23;20500;-85
2021/10/26 13:01:14;;;;;;;3.43;3.13;;;13.70;99.90;;;;;;6109620;23;20883;-84
2021/10/26 13:03:41;;;;;;;4.10;3.00;;;13.50;99.90;;;;;;6109773;23;20393;-85
2021/10/26 13:06:08;;;;;;;4.50;3.33;;;13.40;99.90;;;;;;6109411;23;20419;-84
2021/10/26 13:08:35;;;;;;;2.93;2.73;;;13.40;99.90;;;;;;6109786;23;20436;-84
2021/10/26 13:11:25;;;;;;;3.70;3.43;;;13.50;99.90;;;;;;6110380;23;20427;-84
2021/10/26 13:14:07;;;;;;;2.30;2.10;;;13.60;99.90;;;;;;6110967;23;20415;-85
2021/10/26 13:16:37;;;;;;;3.33;3.13;;;13.70;99.90;;;;;;6111302;23;20856;-84
2021/10/26 13:19:30;;;;;;;2.83;2.63;;;13.80;99.90;;;;;;6110820;23;20448;-84
2021/10/26 13:22:10;;;;;;;4.60;2.50;;;13.80;99.90;;;;;;6109142;23;20422;-84
2021/10/26 13:24:38;;;;;;;2.37;2.10;;;13.90;99.90;;;;;;6111357;23;20408;-85
2021/10/26 13:27:07;;;;;;;3.73;2.77;;;14.00;99.90;;;;;;6111744;23;20429;-85
2021/10/26 13:29:40;;;;;;;2.50;2.30;;;14.10;99.90;;;;;;6110458;23;20830;-84
2021/10/26 13:32:17;;;;;;;4.70;3.07;;;14.30;99.90;;;;;;6111654;23;20393;-85
2021/10/26 13:34:44;;;;;;;2.00;1.80;;;14.50;99.90;;;;;;6110421;23;20393;-85
2021/10/26 13:37:10;;;;;;;2.80;2.60;;;14.70;99.90;;;;;;6109886;23;20429;-85
2021/10/26 13:39:37;;;;;;;3.23;2.60;;;14.80;99.90;;;;;;6121262;23;20439;-84
2021/10/26 13:42:06;;;;;;;2.27;2.07;;;14.90;99.90;;;;;;6123580;23;20455;-84
2021/10/26 13:44:33;;;;;;;2.37;2.17;;;15.10;99.90;;;;;;6122846;23;20391;-84
2021/10/26 13:47:01;;;;;;;2.70;2.57;;;15.10;99.90;;;;;;6115653;23;20983;-86
2021/10/26 13:49:31;;;;;;;2.80;2.60;;;15.20;99.90;;;;;;6102948;23;20495;-86
2021/10/26 13:52:00;;;;;;;1.90;1.80;;;15.40;99.90;;;;;;6103640;23;20419;-86
2021/10/26 13:57:46;;;;;;;2.47;1.93;;;15.80;99.90;;;;;;6104267;23;20511;-86
2021/10/26 14:16:12;;;;;;;2.60;2.00;;;15.40;99.90;;;;;;5948956;23;20413;-85
2021/10/26 14:26:21;;;;;;;3.70;2.83;;;15.30;99.90;;;;;;6104225;23;20437;-86
2021/10/26 14:54:56;;;;;;;3.77;2.23;;;15.10;99.90;;;;;;6100572;23;20421;-83
2021/10/26 14:57:23;;;;;;;2.07;1.87;;;15.30;99.90;;;;;;6102190;23;20435;-86
2021/10/26 14:59:49;;;;;;;1.70;1.60;;;15.50;99.90;;;;;;6099995;23;20504;-84
2021/10/26 15:02:18;;;;;;;2.23;2.03;;;15.50;99.90;;;;;;6102627;23;20417;-84
2021/10/26 15:04:45;;;;;;;3.50;2.43;;;15.60;99.90;;;;;;6101987;23;20417;-84
2021/10/26 15:07:12;;;;;;;2.47;2.10;;;15.70;99.90;;;;;;6100783;23;20948;-83
2021/10/26 15:13:42;;;;;;;3.10;2.40;;;15.70;99.90;;;;;;6104172;23;20418;-85
2021/10/26 15:22:34;;;;;;;2.43;2.33;;;15.50;99.90;;;;;;6097394;23;20453;-82
2021/10/26 15:25:19;;;;;;;4.23;2.30;;;15.30;99.90;;;;;;6102433;23;20389;-83
2021/10/26 15:33:26;;;;;;;4.10;3.80;;;14.80;99.90;;;;;;6101261;23;20404;-84
2021/10/26 15:35:54;;;;;;;4.60;3.50;;;14.70;99.90;;;;;;6100991;23;20411;-84
2021/10/26 15:38:24;;;;;;;4.13;3.67;;;14.60;99.90;;;;;;6102618;23;20460;-84
2021/10/26 15:40:50;;;;;;;4.23;3.60;;;14.50;99.90;;;;;;6102134;23;20473;-82
2021/10/26 15:43:17;;;;;;;4.27;3.97;;;14.40;99.90;;;;;;6102620;23;20419;-82
2021/10/26 15:45:44;;;;;;;3.70;3.40;;;14.30;99.90;;;;;;6101136;23;20413;-83
2021/10/26 15:48:12;;;;;;;4.60;4.30;;;14.20;99.90;;;;;;6102022;23;20447;-83
2021/10/26 15:50:39;;;;;;;30.70;24.97;;;14.00;99.90;;;;;;6101057;23;20413;-83
2021/10/26 15:53:07;;;;;;;18.80;16.90;;;13.80;99.90;;;;;;6101600;23;20408;-83
2021/10/26 15:55:35;;;;;;;5.00;4.37;;;13.80;99.90;;;;;;6100922;23;20413;-83
2021/10/26 15:58:03;;;;;;;2.60;2.50;;;13.80;99.90;;;;;;6102251;23;20440;-84
2021/10/26 16:00:30;;;;;;;3.47;3.17;;;13.90;99.90;;;;;;6102036;23;20455;-83
2021/10/26 16:02:58;;;;;;;3.80;3.50;;;13.80;99.90;;;;;;6101600;23;20423;-82
2021/10/26 16:05:25;;;;;;;3.60;2.53;;;13.80;99.90;;;;;;6100195;23;20800;-83
2021/10/26 16:07:53;;;;;;;2.80;2.60;;;13.80;99.90;;;;;;6100319;23;20432;-82
2021/10/26 16:10:24;;;;;;;5.17;3.60;;;13.80;99.90;;;;;;6099672;23;20423;-83
2021/10/26 16:12:58;;;;;;;5.90;3.37;;;13.70;99.90;;;;;;6100323;23;20411;-83
2021/10/26 16:15:30;;;;;;;5.07;3.17;;;13.60;99.90;;;;;;6100952;23;20415;-83
2021/10/26 16:17:57;;;;;;;4.30;3.47;;;13.60;99.90;;;;;;6100849;23;20443;-85
2021/10/26 16:20:38;;;;;;;7.10;3.63;;;13.50;99.90;;;;;;6103110;23;20451;-85
2021/10/26 16:23:11;;;;;;;5.70;4.47;;;13.40;99.90;;;;;;6102038;23;20806;-84
2021/10/26 16:25:38;;;;;;;3.97;3.70;;;13.20;99.90;;;;;;6102698;23;20947;-86
2021/10/26 16:28:06;;;;;;;3.90;3.40;;;13.20;99.90;;;;;;6102022;23;20762;-84
2021/10/26 16:30:33;;;;;;;4.80;4.37;;;13.20;99.90;;;;;;6101068;23;20417;-84
2021/10/26 16:33:00;;;;;;;5.50;4.00;;;13.00;99.90;;;;;;6100969;23;20423;-82
2021/10/26 16:35:27;;;;;;;4.67;3.80;;;13.00;99.90;;;;;;6102918;23;20431;-82
2021/10/26 16:37:55;;;;;;;5.27;4.97;;;12.80;99.90;;;;;;6102548;23;20446;-84
2021/10/26 16:40:22;;;;;;;4.77;4.20;;;12.80;99.90;;;;;;6099922;23;20452;-83
2021/10/26 16:43:09;;;;;;;7.13;5.60;;;12.70;99.90;;;;;;6100324;23;20424;-83
2021/10/26 16:45:57;;;;;;;4.90;4.50;;;12.60;99.90;;;;;;6100883;23;20412;-85
2021/10/26 16:48:23;;;;;;;6.00;5.07;;;12.50;99.90;;;;;;6102175;23;20479;-85
2021/10/26 16:50:50;;;;;;;5.63;4.90;;;12.50;99.90;;;;;;6102261;23;20416;-84
2021/10/26 16:53:17;;;;;;;5.10;4.70;;;12.40;99.90;;;;;;6102653;23;20423;-85